Aérodrome :
LOGIN :

S'inscrire | Disclaimer

   EN    FR    IT 

 










Légende :    VFR   VFR Marginal   IFR   IFR Intensif   IFR Très Intensif
Visi : 
Plafond : 
>= 8 km
>= 3000ft
5 à 8 km
1000 à 3000 ft
1500m à 5 km
500 à 1000 ft
800 à 1500m
200 à 500 ft
< 800m
< 200 ft
Symboles :   Orages  Brouillard  Fortes neiges  Fortes précipitations  Vent > 20 kt
SIGMETs :   Divers  Orages  Givrage  Turbulence  Onde Orograph.  Cendres Volcan.






- Altitude de l'aérodrome : 465 ft
- Code IATA : LEJ


EDDP - Leipzig Halle

DERNIER METAR :
  • 110550Z 20011KT CAVOK 03/M03 Q1014 NOSIG

METARs EXPIRÉS :
  • 110520Z 20010KT CAVOK 03/M03 Q1014 NOSIG
  • 110450Z 19013KT CAVOK 03/M02 Q1014 NOSIG
  • 110420Z 19014KT CAVOK 03/M02 Q1014 NOSIG
  • 110350Z AUTO 18013KT //// R26L/P2000N R26R/P2000N // ///////// 03/M02 Q1015 NOSIG
  • 110320Z 17014KT CAVOK 02/M03 Q1015 NOSIG

TAF TAF EDDP
Valide du 11 à 06h jusqu'au 12 à 06h UTC


110500Z 1106/1206 18013KT CAVOK
BECMG 1114/1117 18006KT
TEMPO 1120/1204 4500 -RASN BKN012



MET'MAP, la Météo Aéronautique d'un coup d'oeil ! - Copyright ORBIFLY Décembre 2007 - Disclaimer

ORBIFLY MET'MAP TEAM :

Programmation & Développement : Alexandra Zaïnal
Sur une idée originale de : Baudouin d'Aumeries
Assistance à la programmation : Marc-Olivier Méhu
Soutien technique & logistique : Manuel Goepfert

Contact : metmap@orbifly.com




SOURCES & CREDITS :

   NOAA